Osteen, FL (32764)

12:10 AM EST on February 14, 2016 (GMT -0500)
KFLDELTO15 | | Change Station
CLOSE
Current Station
Personal Weather Station
Location: Deltona, FL
Elevation: 52 ft
Nearby Weather Stations

Elev 52 ft 28.86 °N, 81.18 °W | Updated 9 seconds ago

Clear
Clear
43.0 °F
Feels Like 43 °F
N
0.0
Wind Variable Wind from SE
Gusts 0.0 mph

Today
High -- | Low -- °F
--% Chance of Precip.
Yesterday
High -- | Low -- °F
Precip. -- in
Pressure 30.30 in
Visibility 10.0 miles
Clouds Clear
Windchill 43 °F
Dew Point 38 °F
Humidity 84%
Rainfall 0.00 in
Snow Depth Not available.
7:04 AM 6:13 PM
Waxing Crescent, 38% visible
METAR KSFB 140453Z AUTO 36006KT 10SM CLR 09/04 A3030 RMK AO2 SLP259 T00940044 402000094
Pressure 30.30 in
Visibility 10.0 miles
Clouds Clear
Windchill 43 °F
Dew Point 38 °F
Humidity 84%
Rainfall 0.00 in
Snow Depth Not available.
7:04 AM 6:13 PM
Waxing Crescent, 38% visible
METAR KSFB 140453Z AUTO 36006KT 10SM CLR 09/04 A3030 RMK AO2 SLP259 T00940044 402000094

10-Day Weather Forecast

Almanac

Astronomy

Feb. 14, 2016 Rise Set
Actual Time
Civil Twilight
Nautical Twilight
Astronomical Twilight
Moon
Length of Visible Light
Length of Day
Tomorrow will be .
, % of the Moon is Illuminated

Today's Extremes

State Highs State Lows

Community

WunderPhotos

Upload Photos

1,892,748 photos uploaded!

WunderBlog® & News

Nearby

Air Quality

  Air Quality AQ Index Pollutant
Not available.

Snow Depth

Station Depth Elevation

Earthquake Activity

City Distance Mag. Time & Date
Minimum magnitude displayed is 2.5.

Coastal Water Temperatures

Place Temperature

Stations

Nearby Weather Stations

Station Location Temp. Windchill Dew Point Humidity Wind Precip. Elev Updated Type
                   

Watches & Warnings

There are currently no watches in effect.